Jourdanton, Texas
Current Conditions -  °F | °C
As of 1:55 PM on Saturday 25 Oct 2014 (Local Time) from KPEZ Reporting Station
Clear Clear  
Wind Chill: 85°   Ceiling: Unl
Heat Index: 85°   Visibility: 10mi
Dew Point: 55°   Wind: 5mph
Humidity: 35%   Direction: 300°WNW
Pressure: 30.14"   Gusts: NA
Location:  28.92°N, 98.55°W
Report Text: KPEZ 251855Z AUTO 30004KT 10SM CLR 30/13 A3014 RMK AO2 T02970128
Loading
Personal Weather Stations






























Interactive Weather Map
Tropical Storm Tracking
New forecast layout! Learn more

10-Day Weather Forecast

Advertisements
Track Severe Weather on mobile